Time;durP1;ratioP1;P1;durP2;ratioP2;P2;SDS_P1;SDS_P2;PMS_P1;PMS_P2;Temp;Humidity;BMP_temperature;BMP_pressure;BME280_temperature;BME280_humidity;BME280_pressure;Samples;Min_cycle;Max_cycle;Signal;HPM_P1;HPM_P2
2022/08/14 00:08:49;;;;;;;11.60;5.32;;;;;;;21.24;57.31;99892.88;18239467;32;20091;-56
2022/08/14 00:18:52;;;;;;;13.77;5.70;;;;;;;21.01;56.83;99882.59;18239290;32;20497;-56
2022/08/14 00:29:17;;;;;;;11.35;4.87;;;;;;;20.99;56.75;99886.25;18240198;32;20118;-56
2022/08/14 00:39:20;;;;;;;12.00;6.40;;;;;;;20.93;56.30;99883.00;18238608;32;20395;-55
2022/08/14 00:49:27;;;;;;;11.90;5.68;;;;;;;20.59;57.72;99878.59;18238661;32;20112;-55
2022/08/14 00:59:32;;;;;;;11.82;5.62;;;;;;;20.39;58.14;99877.84;18237993;32;20360;-56
2022/08/14 01:09:39;;;;;;;12.02;5.60;;;;;;;20.59;57.71;99876.81;18236272;32;20148;-56
2022/08/14 01:30:05;;;;;;;11.27;5.70;;;;;;;20.45;58.26;99874.00;18237271;32;20093;-55
2022/08/14 01:40:10;;;;;;;10.32;5.85;;;;;;;20.34;57.77;99877.22;18235673;32;20126;-56
2022/08/14 01:50:19;;;;;;;13.13;5.97;;;;;;;20.32;58.22;99877.31;18234964;32;20482;-56
2022/08/14 02:00:29;;;;;;;14.23;6.80;;;;;;;20.23;58.73;99880.44;18234701;32;20086;-56
2022/08/14 02:10:41;;;;;;;13.23;6.60;;;;;;;20.13;58.95;99873.88;18234205;32;20086;-55
2022/08/14 02:20:49;;;;;;;13.47;6.83;;;;;;;20.03;59.34;99876.12;18234873;32;20082;-55
2022/08/14 02:30:54;;;;;;;10.57;5.28;;;;;;;20.14;59.31;99892.34;18242760;32;20134;-55
2022/08/14 02:40:58;;;;;;;12.60;5.82;;;;;;;20.00;59.42;99887.72;18241420;32;20098;-56
2022/08/14 02:51:03;;;;;;;11.38;5.37;;;;;;;20.02;59.22;99891.19;18240854;32;20112;-55
2022/08/14 03:01:14;;;;;;;13.30;6.47;;;;;;;19.95;59.38;99887.13;18241205;32;20192;-55
2022/08/14 03:11:20;;;;;;;11.82;5.90;;;;;;;19.59;59.62;99880.88;18240887;32;20115;-55
2022/08/14 03:21:25;;;;;;;11.20;5.72;;;;;;;19.40;60.46;99881.75;18240656;32;20383;-56
2022/08/14 03:31:29;;;;;;;11.35;5.80;;;;;;;19.43;60.54;99886.00;18239789;32;20090;-55
2022/08/14 03:41:34;;;;;;;12.18;5.68;;;;;;;19.22;61.57;99888.75;18235474;32;147815;-56
2022/08/14 03:51:41;;;;;;;12.73;5.82;;;;;;;19.45;60.37;99894.78;18241185;32;20138;-56
2022/08/14 04:01:48;;;;;;;11.45;5.87;;;;;;;19.32;60.89;99894.47;18239835;32;20101;-55
2022/08/14 04:12:06;;;;;;;10.75;5.78;;;;;;;19.49;60.40;99896.31;18239453;32;20121;-55
2022/08/14 04:22:15;;;;;;;12.70;6.62;;;;;;;19.89;60.02;99904.13;18240023;32;20152;-55
2022/08/14 04:32:28;;;;;;;9.85;4.87;;;;;;;20.52;57.81;99896.63;18238556;32;20651;-56
2022/08/14 04:53:22;;;;;;;10.23;5.05;;;;;;;20.99;57.13;99899.53;18238010;32;20116;-55
2022/08/14 05:03:38;;;;;;;9.40;4.45;;;;;;;21.25;57.01;99919.34;18237950;32;20094;-55
2022/08/14 05:13:43;;;;;;;11.12;5.35;;;;;;;21.65;56.58;99916.28;18237307;32;20094;-55
2022/08/14 05:24:08;;;;;;;9.75;4.75;;;;;;;21.99;56.66;99922.31;18238138;32;20113;-55
2022/08/14 05:34:21;;;;;;;8.57;4.60;;;;;;;22.20;56.95;99915.84;18291018;32;20169;-56
2022/08/14 05:44:30;;;;;;;;;;;;;;;22.28;57.27;99911.78;18298637;32;20089;-55
2022/08/14 05:54:35;;;;;;;9.38;4.65;;;;;;;22.33;57.71;99913.34;18299427;32;20007;-55
2022/08/14 06:04:38;;;;;;;8.13;3.65;;;;;;;23.35;55.01;99917.81;18307003;32;20168;-56
2022/08/14 06:14:43;;;;;;;8.40;4.18;;;;;;;23.91;53.72;99911.56;18306224;32;20512;-56
2022/08/14 06:24:49;;;;;;;8.45;3.70;;;;;;;24.59;51.97;99918.66;18305334;32;20149;-55
2022/08/14 06:34:54;;;;;;;9.10;4.05;;;;;;;25.44;50.28;99895.84;18306034;32;20094;-56
2022/08/14 06:45:15;;;;;;;9.68;4.00;;;;;;;25.89;49.25;99897.91;18305703;32;20094;-56
2022/08/14 06:55:21;;;;;;;8.57;3.92;;;;;;;26.76;47.04;99887.81;18304023;32;20109;-56
2022/08/14 07:16:02;;;;;;;7.55;3.47;;;;;;;27.59;45.74;99860.72;18166802;32;20118;-56
2022/08/14 07:26:08;;;;;;;7.32;3.20;;;;;;;28.09;43.46;99863.69;18142879;32;20149;-56
2022/08/14 07:36:15;;;;;;;6.65;3.17;;;;;;;27.87;43.77;99858.41;18117314;32;20129;-56
2022/08/14 07:46:32;;;;;;;7.47;3.47;;;;;;;29.18;41.44;99854.34;18186789;32;20192;-56
2022/08/14 07:56:43;;;;;;;7.65;3.67;;;;;;;30.11;38.32;99855.84;18286553;32;20082;-56
2022/08/14 08:06:51;;;;;;;8.52;3.10;;;;;;;30.39;38.01;99853.22;18291305;32;20090;-56
2022/08/14 08:16:56;;;;;;;8.30;3.45;;;;;;;29.57;39.11;99853.59;18296545;32;20081;-56
2022/08/14 08:27:01;;;;;;;8.30;3.45;;;;;;;30.17;38.00;99832.91;18239065;32;20090;-56
2022/08/14 08:37:07;;;;;;;8.27;3.58;;;;;;;30.59;37.53;99845.09;18240410;32;20116;-56
2022/08/14 08:47:14;;;;;;;7.25;3.30;;;;;;;30.94;36.22;99845.41;18238232;32;20469;-56
2022/08/14 08:57:26;;;;;;;8.18;3.62;;;;;;;30.27;36.80;99825.66;18239219;32;20093;-56
2022/08/14 09:07:33;;;;;;;8.40;3.33;;;;;;;30.56;36.86;99831.94;18237518;32;20101;-56
2022/08/14 09:17:39;;;;;;;6.47;3.10;;;;;;;29.57;38.10;99813.25;18236506;32;20160;-56
2022/08/14 09:27:46;;;;;;;10.02;3.55;;;;;;;30.60;36.75;99814.50;18264698;32;20090;-56
2022/08/14 09:38:00;;;;;;;6.47;2.97;;;;;;;31.74;33.53;99800.72;18297895;32;20219;-56
2022/08/14 09:48:14;;;;;;;7.62;2.97;;;;;;;32.32;30.63;99795.75;18298579;32;20470;-56
2022/08/14 09:58:20;;;;;;;7.43;3.20;;;;;;;32.16;29.20;99788.41;18299367;32;20112;-56
2022/08/14 10:08:26;;;;;;;5.85;2.83;;;;;;;32.69;28.33;99777.56;18295930;32;20432;-56
2022/08/14 10:18:32;;;;;;;7.18;2.80;;;;;;;33.69;27.09;99765.09;18296849;32;20094;-56
2022/08/14 10:28:41;;;;;;;5.62;2.50;;;;;;;32.99;23.71;99764.50;18296383;32;20159;-56
2022/08/14 10:39:07;;;;;;;7.45;2.78;;;;;;;33.86;21.78;99765.91;18296285;32;20130;-56
2022/08/14 10:49:21;;;;;;;6.25;2.50;;;;;;;35.02;22.02;99753.81;18303225;32;20439;-56
2022/08/14 10:59:26;;;;;;;6.40;2.83;;;;;;;34.22;21.96;99748.41;18304411;32;20137;-56
2022/08/14 11:09:38;;;;;;;7.87;3.65;;;;;;;35.21;22.19;99736.25;18304075;32;20081;-56
2022/08/14 11:19:45;;;;;;;6.50;3.12;;;;;;;35.38;20.97;99728.81;18303637;32;20105;-56
2022/08/14 11:29:57;;;;;;;6.15;2.87;;;;;;;34.70;20.16;99724.03;18304884;32;20097;-56
2022/08/14 11:40:24;;;;;;;6.32;2.90;;;;;;;34.30;23.05;99719.47;18304436;32;20137;-56
2022/08/14 11:50:33;;;;;;;5.72;2.97;;;;;;;35.09;23.17;99708.72;18303222;32;20453;-56
2022/08/14 12:00:48;;;;;;;6.45;3.00;;;;;;;34.97;23.52;99702.84;18301083;32;20138;-56
2022/08/14 12:10:57;;;;;;;7.40;3.35;;;;;;;36.10;22.70;99678.59;18302849;32;20085;-56
2022/08/14 12:21:12;;;;;;;7.75;3.47;;;;;;;36.09;21.92;99673.34;18302472;32;20073;-56
2022/08/14 12:31:21;;;;;;;8.18;3.25;;;;;;;36.27;22.40;99659.38;18257810;32;20082;-56
2022/08/14 12:41:28;;;;;;;6.22;3.03;;;;;;;36.17;21.71;99653.41;18254731;32;20091;-56
2022/08/14 12:51:42;;;;;;;8.63;3.55;;;;;;;36.63;21.90;99647.69;18284873;32;20097;-56
2022/08/14 13:01:46;;;;;;;7.70;3.45;;;;;;;36.82;22.29;99636.34;18296212;32;20109;-56
2022/08/14 13:12:09;;;;;;;6.65;3.37;;;;;;;34.76;23.30;99630.31;18295602;32;20639;-56
2022/08/14 13:22:38;;;;;;;8.30;3.35;;;;;;;36.42;20.59;99617.72;18295364;32;20102;-56
2022/08/14 13:32:46;;;;;;;5.85;2.67;;;;;;;36.69;19.97;99607.16;18297901;32;20146;-57
2022/08/14 13:42:54;;;;;;;7.72;3.05;;;;;;;36.97;19.91;99609.09;18296188;32;20089;-56
2022/08/14 13:52:59;;;;;;;7.78;2.85;;;;;;;37.05;19.20;99587.22;18297956;32;20081;-57
2022/08/14 14:03:09;;;;;;;6.53;2.95;;;;;;;36.39;19.78;99589.09;18298422;32;20118;-57
2022/08/14 14:13:14;;;;;;;8.18;3.17;;;;;;;36.60;20.88;99571.97;18298647;32;20106;-56
2022/08/14 14:23:20;;;;;;;6.78;3.35;;;;;;;35.75;22.94;99568.88;18306375;32;20173;-56
2022/08/14 14:33:24;;;;;;;8.50;3.67;;;;;;;33.57;24.07;99578.75;18307149;32;20090;-56
2022/08/14 14:43:51;;;;;;;8.75;3.45;;;;;;;34.42;23.97;99559.25;18308929;32;20112;-57
2022/08/14 14:53:57;;;;;;;6.63;2.83;;;;;;;34.12;24.38;99561.81;18308307;32;20094;-56
2022/08/14 15:04:02;;;;;;;6.40;3.33;;;;;;;33.19;25.73;99554.13;18307840;32;20094;-57
2022/08/14 15:14:09;;;;;;;7.40;2.87;;;;;;;32.87;26.87;99555.84;18294647;32;20468;-57
2022/08/14 15:24:34;;;;;;;17.70;4.32;;;;;;;32.58;26.89;99557.19;18307609;32;20116;-56
2022/08/14 15:34:38;;;;;;;7.18;3.12;;;;;;;33.12;26.96;99564.78;18306120;32;20116;-56
2022/08/14 15:44:55;;;;;;;7.10;3.00;;;;;;;33.15;27.12;99561.78;18340122;32;20115;-57
2022/08/14 15:55:07;;;;;;;14.32;5.90;;;;;;;33.28;27.00;99552.28;18370031;32;20370;-56
2022/08/14 16:05:12;;;;;;;7.57;3.17;;;;;;;33.13;28.03;99547.56;18369679;32;20089;-56
2022/08/14 16:15:19;;;;;;;6.85;3.10;;;;;;;32.43;28.21;99548.91;18370342;32;20085;-57
2022/08/14 16:25:27;;;;;;;5.95;2.83;;;;;;;32.82;27.76;99545.53;18368814;32;20505;-56
2022/08/14 16:35:38;;;;;;;11.40;3.70;;;;;;;32.52;28.56;99543.34;18369786;32;20495;-57
2022/08/14 16:45:58;;;;;;;;;;;;;;;32.63;28.39;99541.31;18367306;32;20175;-57
2022/08/14 16:56:13;;;;;;;7.05;3.05;;;;;;;32.74;28.53;99546.41;18368384;32;19999;-56
2022/08/14 17:06:46;;;;;;;9.10;3.30;;;;;;;32.08;31.36;99541.72;18354522;32;20389;-57
2022/08/14 17:16:56;;;;;;;8.77;3.80;;;;;;;31.72;33.75;99549.16;18284208;32;20097;-57
2022/08/14 17:27:03;;;;;;;11.27;5.12;;;;;;;31.20;35.39;99546.34;18301217;32;20070;-58
2022/08/14 17:37:09;;;;;;;11.63;4.80;;;;;;;30.76;37.51;99562.50;18274984;32;20090;-56
2022/08/14 17:47:26;;;;;;;13.45;4.22;;;;;;;30.20;38.98;99562.62;18301918;32;20419;-56
2022/08/14 17:57:38;;;;;;;8.00;3.20;;;;;;;29.57;40.01;99573.97;18293883;32;20107;-56
2022/08/14 18:07:46;;;;;;;8.60;3.37;;;;;;;29.15;38.76;99583.25;18298096;32;20098;-56
2022/08/14 18:18:05;;;;;;;8.60;3.47;;;;;;;28.61;39.73;99572.94;18285383;32;20370;-56
2022/08/14 18:28:14;;;;;;;83.43;11.48;;;;;;;28.27;40.30;99575.16;18300994;32;20090;-56
2022/08/14 18:38:22;;;;;;;7.80;3.73;;;;;;;27.96;40.85;99551.91;18295377;32;20730;-56
2022/08/14 18:48:44;;;;;;;7.32;3.65;;;;;;;27.51;42.15;99561.16;18295165;32;20164;-56
2022/08/14 18:58:54;;;;;;;11.10;4.00;;;;;;;27.10;42.88;99569.09;18308115;32;20138;-56
2022/08/14 19:09:02;;;;;;;8.48;3.67;;;;;;;26.74;43.79;99578.25;18306794;32;20115;-57
2022/08/14 19:19:07;;;;;;;12.65;5.20;;;;;;;26.13;44.86;99576.09;18307038;32;20108;-56
2022/08/14 19:29:26;;;;;;;12.80;5.90;;;;;;;26.12;45.05;99583.28;18267740;32;20121;-56
2022/08/14 19:39:51;;;;;;;11.00;4.32;;;;;;;25.89;46.70;99587.81;18272797;32;20086;-56
2022/08/14 19:49:57;;;;;;;9.85;4.50;;;;;;;25.57;47.83;99586.69;18299515;32;20435;-56
2022/08/14 20:00:21;;;;;;;10.40;4.57;;;;;;;25.44;48.51;99592.13;18289938;32;20102;-56
2022/08/14 20:10:35;;;;;;;9.67;4.10;;;;;;;25.34;48.83;99583.13;18259102;32;20340;-57
2022/08/14 20:20:58;;;;;;;10.88;4.93;;;;;;;25.10;49.98;99588.53;18260196;32;20174;-56
2022/08/14 20:31:18;;;;;;;10.45;4.62;;;;;;;24.94;50.01;99585.22;18271279;32;20120;-56
2022/08/14 20:41:24;;;;;;;9.45;4.47;;;;;;;24.63;50.84;99589.28;18275864;32;20374;-56
2022/08/14 20:51:35;;;;;;;12.27;4.78;;;;;;;24.36;52.05;99604.56;18269758;32;20140;-56
2022/08/14 21:01:41;;;;;;;10.57;4.47;;;;;;;24.48;51.90;99605.50;18300143;32;20097;-56
2022/08/14 21:11:48;;;;;;;10.90;4.62;;;;;;;24.30;51.67;99610.34;18303888;32;20351;-56
2022/08/14 21:22:06;;;;;;;9.98;4.93;;;;;;;24.08;51.62;99609.22;18303654;32;20113;-56
2022/08/14 21:32:31;;;;;;;10.85;4.45;;;;;;;23.84;52.73;99615.28;18301826;32;20089;-56
2022/08/14 21:42:37;;;;;;;9.75;4.47;;;;;;;23.67;53.39;99624.47;18296992;32;20153;-56
2022/08/14 21:52:43;;;;;;;11.15;4.85;;;;;;;23.69;52.98;99619.06;18239005;32;20386;-56
2022/08/14 22:03:05;;;;;;;25.35;6.78;;;;;;;23.39;53.74;99620.22;18239430;32;20086;-56
2022/08/14 22:13:11;;;;;;;10.77;4.47;;;;;;;23.22;54.59;99623.97;18237830;32;20139;-55
2022/08/14 22:23:15;;;;;;;11.82;4.55;;;;;;;23.12;54.54;99621.94;18238110;32;20137;-55
2022/08/14 22:33:19;;;;;;;13.98;5.78;;;;;;;22.90;54.67;99627.84;18237811;32;20108;-56
2022/08/14 22:43:24;;;;;;;10.82;5.15;;;;;;;22.88;55.11;99613.78;18242939;32;20093;-55
2022/08/14 22:53:28;;;;;;;10.20;4.62;;;;;;;22.81;55.18;99609.81;18244828;32;20098;-55
2022/08/14 23:03:33;;;;;;;10.07;4.80;;;;;;;22.50;55.81;99602.06;18244471;32;20136;-56
2022/08/14 23:13:39;;;;;;;10.48;5.03;;;;;;;22.37;56.04;99599.31;18243952;32;20112;-55
2022/08/14 23:23:48;;;;;;;12.35;5.07;;;;;;;22.13;57.51;99609.72;18245006;32;20155;-55
2022/08/14 23:33:57;;;;;;;11.25;4.97;;;;;;;22.27;56.62;99600.88;18243852;32;20108;-55
2022/08/14 23:44:01;;;;;;;10.95;4.65;;;;;;;21.92;57.07;99585.34;18243467;32;20116;-55
2022/08/14 23:54:05;;;;;;;12.45;4.95;;;;;;;21.83;57.22;99597.41;18228552;32;20102;-55
